Terminal Aerodrome Forecast
Issued by NWS Tulsa, OK

Home | Current Version | Previous Version | Text Only | Print | Product List | Glossary On
Versions: 1 2 3 4 5 6 7 8 9 10 11 12 13 14 15 16 17 18 19 20 21
000
FTUS44 KTSA 012300
TAFFSM
TAF
KFSM 012339Z 0200/0224 33006KT P6SM OVC015
     FM020400 33006KT P6SM OVC009
      TEMPO 0204/0208 4SM BR
     FM020900 05006KT 4SM BR OVC007
     FM021600 08006KT 5SM BR OVC007=

USA.gov is the U.S. government's official web portal to all federal, state and local government web resources and services.